createdAt,value
2019-02-26T00:00:35.455Z,88.40
2019-02-26T00:02:11.775Z,88.40
2019-02-26T00:03:48.098Z,88.60
2019-02-26T00:05:26.149Z,88.80
2019-02-26T00:07:02.084Z,88.90
2019-02-26T00:08:38.382Z,89.10
2019-02-26T00:10:14.795Z,89.30
2019-02-26T00:11:50.919Z,89.60
2019-02-26T00:13:29.401Z,89.90
2019-02-26T00:15:10.970Z,89.90
2019-02-26T00:16:48.755Z,90.00
2019-02-26T00:18:26.080Z,90.00
2019-02-26T00:20:01.886Z,90.10
2019-02-26T00:21:38.251Z,90.20
2019-02-26T00:23:14.417Z,90.20
2019-02-26T00:24:50.497Z,90.30
2019-02-26T00:26:27.992Z,90.20
2019-02-26T00:28:05.503Z,90.30
2019-02-26T00:29:41.844Z,90.30
2019-02-26T00:31:19.201Z,90.30
2019-02-26T00:32:57.745Z,90.30
2019-02-26T00:34:34.673Z,90.30
2019-02-26T00:36:13.217Z,90.30
2019-02-26T00:37:51.666Z,90.30
2019-02-26T00:39:29.698Z,90.40
2019-02-26T00:41:07.690Z,90.50
2019-02-26T00:42:44.000Z,90.70
2019-02-26T00:44:21.195Z,91.00
2019-02-26T00:45:58.247Z,90.70
2019-02-26T00:47:36.378Z,90.80
2019-02-26T00:49:13.321Z,90.80
2019-02-26T00:50:49.389Z,91.00
2019-02-26T00:52:25.475Z,91.20
2019-02-26T00:54:01.996Z,91.60
2019-02-26T00:55:39.688Z,91.40
2019-02-26T00:57:17.258Z,91.50
2019-02-26T00:58:52.959Z,91.60
2019-02-26T01:00:30.791Z,91.60
2019-02-26T01:02:06.960Z,91.70
2019-02-26T01:03:44.829Z,91.80
2019-02-26T01:05:20.868Z,91.80
2019-02-26T01:06:58.975Z,92.10
2019-02-26T01:08:35.806Z,92.00
2019-02-26T01:10:14.010Z,91.80
2019-02-26T01:11:52.027Z,91.90
2019-02-26T01:13:30.074Z,91.90
2019-02-26T01:15:14.053Z,91.90
2019-02-26T01:16:50.311Z,91.90
2019-02-26T01:18:26.781Z,92.00
2019-02-26T01:20:09.883Z,92.00
2019-02-26T01:21:46.043Z,91.90
2019-02-26T01:23:24.244Z,92.00
2019-02-26T01:24:59.950Z,92.00
2019-02-26T01:26:36.042Z,92.10
2019-02-26T01:28:14.107Z,92.40
2019-02-26T01:29:51.795Z,92.00
2019-02-26T01:31:29.895Z,92.00
2019-02-26T01:33:08.013Z,92.00
2019-02-26T01:34:45.675Z,91.90
2019-02-26T01:36:23.701Z,91.90
2019-02-26T01:38:00.560Z,91.90
2019-02-26T01:39:38.318Z,91.90
2019-02-26T01:41:15.562Z,91.90
2019-02-26T01:42:55.009Z,91.90
2019-02-26T01:44:32.336Z,92.00
2019-02-26T01:46:09.427Z,91.90
2019-02-26T01:47:48.265Z,92.00
2019-02-26T01:49:23.749Z,92.00
2019-02-26T01:51:01.683Z,92.00
2019-02-26T01:52:38.803Z,92.00
2019-02-26T01:54:16.775Z,92.10
2019-02-26T01:55:53.524Z,92.20
2019-02-26T01:57:29.622Z,92.20
2019-02-26T01:59:05.569Z,92.20
2019-02-26T02:00:41.700Z,92.30
2019-02-26T02:02:20.415Z,92.40
2019-02-26T02:03:56.311Z,92.30
2019-02-26T02:05:32.631Z,92.40
2019-02-26T02:07:08.840Z,92.40
2019-02-26T02:08:45.893Z,92.40
2019-02-26T02:10:22.811Z,92.40
2019-02-26T02:12:00.013Z,92.50
2019-02-26T02:13:38.642Z,92.60
2019-02-26T02:15:18.832Z,92.60
2019-02-26T02:16:54.087Z,92.60
2019-02-26T02:18:30.201Z,92.70
2019-02-26T02:20:20.747Z,92.70
2019-02-26T02:21:54.411Z,92.70
2019-02-26T02:23:31.551Z,92.80
2019-02-26T02:25:09.354Z,92.80
2019-02-26T02:26:47.734Z,92.80
2019-02-26T02:28:23.872Z,92.90
2019-02-26T02:30:01.163Z,92.90
2019-02-26T02:31:37.812Z,92.80
2019-02-26T02:33:19.588Z,92.90
2019-02-26T02:34:58.229Z,92.90
2019-02-26T02:36:31.624Z,92.90
2019-02-26T02:38:07.757Z,93.00
2019-02-26T02:39:43.787Z,93.00
2019-02-26T02:41:19.859Z,93.10
2019-02-26T02:42:55.818Z,93.10
2019-02-26T02:44:31.851Z,93.10
2019-02-26T02:46:07.924Z,93.10
2019-02-26T02:47:44.017Z,93.60
2019-02-26T02:49:19.905Z,93.30
2019-02-26T02:50:55.808Z,93.30
2019-02-26T02:52:33.095Z,93.40
2019-02-26T02:54:12.131Z,93.40
2019-02-26T02:55:51.491Z,93.50
2019-02-26T02:57:27.365Z,93.40
2019-02-26T02:59:05.971Z,93.40
2019-02-26T03:00:43.507Z,93.60
2019-02-26T03:02:20.524Z,93.60
2019-02-26T03:03:59.019Z,93.60
2019-02-26T03:05:37.476Z,93.60
2019-02-26T03:07:15.045Z,93.70
2019-02-26T03:08:51.609Z,93.70
2019-02-26T03:10:30.858Z,93.70
2019-02-26T03:12:06.235Z,93.70
2019-02-26T03:13:43.089Z,93.80
2019-02-26T03:15:21.842Z,93.90
2019-02-26T03:16:57.991Z,93.90
2019-02-26T03:18:34.098Z,93.90
2019-02-26T03:20:13.100Z,93.90
2019-02-26T03:21:49.713Z,94.00
2019-02-26T03:23:26.763Z,94.10
2019-02-26T03:25:02.812Z,94.10
2019-02-26T03:26:38.875Z,94.20
2019-02-26T03:28:14.950Z,94.50
2019-02-26T03:29:52.535Z,94.00
2019-02-26T03:31:30.998Z,94.30
2019-02-26T03:33:06.871Z,94.30
2019-02-26T03:34:42.845Z,94.30
2019-02-26T03:36:19.334Z,94.30
2019-02-26T03:37:57.961Z,94.40
2019-02-26T03:39:33.090Z,94.50
2019-02-26T03:41:09.217Z,94.60
2019-02-26T03:42:46.241Z,94.60
2019-02-26T03:44:22.426Z,94.60
2019-02-26T03:45:58.473Z,94.50
2019-02-26T03:47:34.499Z,94.50
2019-02-26T03:49:10.741Z,94.50
2019-02-26T03:50:46.970Z,94.50
2019-02-26T03:52:23.030Z,94.60
2019-02-26T03:54:00.388Z,94.50
2019-02-26T03:55:38.816Z,94.60
2019-02-26T03:57:16.651Z,94.60
2019-02-26T03:58:56.701Z,94.60
2019-02-26T04:00:32.437Z,94.70
2019-02-26T04:02:09.487Z,94.60
2019-02-26T04:03:45.558Z,94.50
2019-02-26T04:05:21.862Z,94.60
2019-02-26T04:06:58.580Z,94.60
2019-02-26T04:08:35.981Z,94.60
2019-02-26T04:10:13.934Z,94.90
2019-02-26T04:11:52.525Z,94.60
2019-02-26T04:13:27.632Z,94.70
2019-02-26T04:15:04.674Z,94.60
2019-02-26T04:16:43.460Z,94.60
2019-02-26T04:18:18.630Z,94.60
2019-02-26T04:19:54.769Z,94.60
2019-02-26T04:22:08.375Z,94.70
2019-02-26T04:23:46.572Z,94.70
2019-02-26T04:25:41.434Z,94.70
2019-02-26T04:27:44.154Z,94.80
2019-02-26T04:29:27.058Z,94.90
2019-02-26T04:31:30.906Z,95.00
2019-02-26T04:33:38.128Z,95.10
2019-02-26T04:35:17.846Z,95.10
2019-02-26T04:37:38.466Z,95.10
2019-02-26T04:39:51.942Z,95.10
2019-02-26T04:41:33.275Z,95.30
2019-02-26T04:43:19.521Z,95.20
2019-02-26T04:45:21.087Z,95.10
2019-02-26T04:46:59.571Z,95.20
2019-02-26T04:48:42.143Z,95.20
2019-02-26T04:50:18.173Z,95.20
2019-02-26T04:51:54.317Z,95.20
2019-02-26T04:53:31.370Z,95.20
2019-02-26T04:55:10.272Z,95.20
2019-02-26T04:56:48.049Z,95.60
2019-02-26T04:58:25.024Z,95.40
2019-02-26T05:00:02.570Z,95.30
2019-02-26T05:01:38.905Z,95.30
2019-02-26T05:03:17.203Z,95.30
2019-02-26T05:04:52.776Z,95.60
2019-02-26T05:06:28.936Z,95.20
2019-02-26T05:08:07.664Z,95.30
2019-02-26T05:09:42.953Z,95.20
2019-02-26T05:11:31.136Z,95.20
2019-02-26T05:12:57.935Z,95.30
2019-02-26T05:14:34.515Z,95.20
2019-02-26T05:16:10.726Z,95.30
2019-02-26T05:17:48.119Z,95.20
2019-02-26T05:19:24.396Z,95.20
2019-02-26T05:21:02.778Z,95.20
2019-02-26T05:22:42.810Z,95.20
2019-02-26T05:24:21.279Z,95.20
2019-02-26T05:26:02.875Z,95.20
2019-02-26T05:27:36.388Z,95.30
2019-02-26T05:29:14.148Z,95.40
2019-02-26T05:30:51.393Z,95.30
2019-02-26T05:32:30.031Z,95.20
2019-02-26T05:34:05.603Z,95.20
2019-02-26T05:35:45.632Z,95.20
2019-02-26T05:37:19.311Z,95.20
2019-02-26T05:38:57.141Z,95.30
2019-02-26T05:40:37.527Z,95.20
2019-02-26T05:42:10.720Z,95.30
2019-02-26T05:43:49.287Z,95.30
2019-02-26T05:45:26.573Z,95.30
2019-02-26T05:47:02.486Z,95.30
2019-02-26T05:48:39.963Z,95.40
2019-02-26T05:50:16.806Z,95.40
2019-02-26T05:51:53.971Z,95.30
2019-02-26T05:53:30.916Z,95.40
2019-02-26T05:55:09.121Z,95.30
2019-02-26T05:56:46.840Z,95.30
2019-02-26T05:58:23.043Z,95.30
2019-02-26T05:59:58.933Z,95.30
2019-02-26T06:01:34.828Z,95.30
2019-02-26T06:03:12.796Z,95.30
2019-02-26T06:04:48.697Z,95.30
2019-02-26T06:06:24.595Z,95.30
2019-02-26T06:08:00.803Z,95.20
2019-02-26T06:09:36.913Z,95.20
2019-02-26T06:11:13.048Z,95.30
2019-02-26T06:12:50.415Z,95.20
2019-02-26T06:14:27.645Z,95.10
2019-02-26T06:16:05.508Z,95.20
2019-02-26T06:17:45.232Z,95.20
2019-02-26T06:19:24.559Z,95.20
2019-02-26T06:21:01.178Z,95.20
2019-02-26T06:22:37.638Z,95.20
2019-02-26T06:24:13.802Z,95.40
2019-02-26T06:25:49.598Z,95.50
2019-02-26T06:27:27.281Z,95.20
2019-02-26T06:29:03.520Z,95.10
2019-02-26T06:30:39.496Z,95.10
2019-02-26T06:32:18.388Z,95.10
2019-02-26T06:33:54.497Z,95.10
2019-02-26T06:35:31.528Z,95.20
2019-02-26T06:37:20.186Z,95.10
2019-02-26T06:38:56.454Z,95.00
2019-02-26T06:40:36.734Z,95.10
2019-02-26T06:42:12.214Z,95.00
2019-02-26T06:43:50.273Z,94.90
2019-02-26T06:45:27.195Z,94.80
2019-02-26T06:47:04.789Z,94.90
2019-02-26T06:48:41.165Z,94.80
2019-02-26T06:50:18.906Z,94.70
2019-02-26T06:51:55.225Z,94.50
2019-02-26T06:53:31.140Z,94.30
2019-02-26T06:55:10.448Z,94.20
2019-02-26T06:56:48.491Z,93.90
2019-02-26T06:58:26.688Z,93.70
2019-02-26T07:00:04.264Z,93.70
2019-02-26T07:01:42.018Z,93.50
2019-02-26T07:03:18.268Z,93.50
2019-02-26T07:04:54.301Z,93.40
2019-02-26T07:06:32.622Z,93.30
2019-02-26T07:08:08.046Z,93.30
2019-02-26T07:09:44.079Z,93.20
2019-02-26T07:11:21.532Z,93.10
2019-02-26T07:12:57.596Z,92.90
2019-02-26T07:14:34.519Z,92.90
2019-02-26T07:16:10.711Z,92.90
2019-02-26T07:17:46.699Z,92.90
2019-02-26T07:19:22.767Z,92.80
2019-02-26T07:21:00.293Z,92.80
2019-02-26T07:22:36.562Z,92.70
2019-02-26T07:24:12.532Z,92.70
2019-02-26T07:25:48.566Z,92.60
2019-02-26T07:27:26.339Z,92.50
2019-02-26T07:29:03.527Z,92.50
2019-02-26T07:30:42.315Z,92.40
2019-02-26T07:32:20.205Z,92.30
2019-02-26T07:33:58.057Z,92.00
2019-02-26T07:35:35.085Z,91.90
2019-02-26T07:37:13.395Z,91.80
2019-02-26T07:38:51.566Z,91.70
2019-02-26T07:40:28.444Z,91.60
2019-02-26T07:42:06.821Z,91.50
2019-02-26T07:43:46.346Z,91.60
2019-02-26T07:45:22.909Z,91.30
2019-02-26T07:46:58.871Z,91.30
2019-02-26T07:48:35.795Z,91.70
2019-02-26T07:50:14.614Z,91.20
2019-02-26T07:51:50.660Z,90.90
2019-02-26T07:53:26.761Z,90.90
2019-02-26T07:55:03.735Z,90.90
2019-02-26T07:56:40.694Z,90.90
2019-02-26T07:58:17.843Z,90.80
2019-02-26T07:59:54.143Z,90.90
2019-02-26T08:01:30.288Z,90.80
2019-02-26T08:03:06.398Z,90.70
2019-02-26T08:04:43.627Z,90.60
2019-02-26T08:06:19.735Z,90.40
2019-02-26T08:07:56.570Z,90.00
2019-02-26T08:09:32.855Z,89.50
2019-02-26T08:11:08.850Z,88.90
2019-02-26T08:12:46.347Z,88.20
2019-02-26T08:14:23.308Z,88.00
2019-02-26T08:16:02.463Z,87.50
2019-02-26T08:17:39.139Z,87.10
2019-02-26T08:19:15.096Z,86.70
2019-02-26T08:20:52.782Z,86.50
2019-02-26T08:22:30.149Z,86.40
2019-02-26T08:24:06.885Z,86.50
2019-02-26T08:25:42.871Z,86.30
2019-02-26T08:27:18.898Z,84.00
2019-02-26T08:28:54.962Z,83.30
2019-02-26T08:30:31.092Z,82.80
2019-02-26T08:32:07.262Z,82.40
2019-02-26T08:33:43.242Z,81.70
2019-02-26T08:35:19.334Z,80.50
2019-02-26T08:36:55.235Z,78.90
2019-02-26T08:38:31.295Z,77.50
2019-02-26T08:40:11.481Z,76.70
2019-02-26T08:42:05.822Z,74.60
2019-02-26T08:43:44.140Z,72.90
2019-02-26T08:45:25.511Z,71.00
2019-02-26T08:47:00.828Z,69.00
2019-02-26T08:48:36.868Z,68.00
2019-02-26T08:50:15.953Z,66.40
2019-02-26T08:51:51.984Z,66.00
2019-02-26T08:53:29.011Z,65.70
2019-02-26T08:55:10.383Z,64.40
2019-02-26T08:56:46.432Z,64.00
2019-02-26T08:58:23.597Z,63.50
2019-02-26T09:00:00.121Z,65.10
2019-02-26T09:01:36.373Z,64.80
2019-02-26T09:03:13.845Z,64.10
2019-02-26T09:04:50.355Z,63.40
2019-02-26T09:06:26.365Z,62.00
2019-02-26T09:08:02.357Z,61.20
2019-02-26T09:09:39.655Z,62.50
2019-02-26T09:11:15.838Z,61.70
2019-02-26T09:12:52.227Z,60.70
2019-02-26T09:14:32.021Z,59.90
2019-02-26T09:16:07.947Z,59.60
2019-02-26T09:17:44.231Z,58.90
2019-02-26T09:19:22.682Z,59.50
2019-02-26T09:20:59.665Z,58.70
2019-02-26T09:22:35.746Z,57.50
2019-02-26T09:24:11.819Z,58.20
2019-02-26T09:25:51.442Z,57.80
2019-02-26T09:27:27.269Z,57.90
2019-02-26T09:29:03.612Z,56.90
2019-02-26T09:30:40.856Z,58.00
2019-02-26T09:32:18.308Z,57.10
2019-02-26T09:33:54.412Z,56.00
2019-02-26T09:35:31.354Z,57.00
2019-02-26T09:37:08.417Z,58.10
2019-02-26T09:38:46.751Z,57.20
2019-02-26T09:40:23.671Z,56.90
2019-02-26T09:42:02.258Z,56.50
2019-02-26T09:43:40.503Z,56.40
2019-02-26T09:45:26.044Z,56.10
2019-02-26T09:47:04.438Z,56.70
2019-02-26T09:48:40.507Z,56.50
2019-02-26T09:50:17.770Z,56.40
2019-02-26T09:51:55.101Z,56.20
2019-02-26T09:53:32.037Z,55.50
2019-02-26T09:55:14.405Z,54.80
2019-02-26T09:56:50.449Z,55.30
2019-02-26T09:58:26.554Z,56.90
2019-02-26T10:00:03.256Z,56.20
2019-02-26T10:01:40.756Z,55.90
2019-02-26T10:03:17.336Z,56.60
2019-02-26T10:04:54.414Z,57.10
2019-02-26T10:06:30.462Z,56.80
2019-02-26T10:08:10.422Z,56.50
2019-02-26T10:09:48.456Z,57.30
2019-02-26T10:11:26.129Z,56.90
2019-02-26T10:13:04.696Z,56.40
2019-02-26T10:14:39.841Z,56.10
2019-02-26T10:16:15.921Z,55.70
2019-02-26T10:17:52.008Z,55.70
2019-02-26T10:19:28.074Z,55.60
2019-02-26T10:21:06.242Z,55.00
2019-02-26T10:22:41.963Z,54.30
2019-02-26T10:24:18.759Z,54.60
2019-02-26T10:25:57.928Z,54.60
2019-02-26T10:27:35.820Z,54.00
2019-02-26T10:29:11.326Z,53.80
2019-02-26T10:30:47.459Z,53.50
2019-02-26T10:32:24.299Z,52.40
2019-02-26T10:34:02.990Z,55.10
2019-02-26T10:35:42.127Z,54.30
2019-02-26T10:37:17.170Z,54.30
2019-02-26T10:38:55.092Z,54.00
2019-02-26T10:40:35.630Z,54.00
2019-02-26T10:42:08.953Z,52.90
2019-02-26T10:43:44.856Z,52.50
2019-02-26T10:45:27.074Z,52.10
2019-02-26T10:47:04.058Z,52.40
2019-02-26T10:48:41.700Z,53.50
2019-02-26T10:50:22.860Z,53.30
2019-02-26T10:51:59.709Z,53.20
2019-02-26T10:53:35.848Z,53.30
2019-02-26T10:55:15.041Z,52.80
2019-02-26T10:56:50.181Z,52.00
2019-02-26T10:58:26.078Z,52.00
2019-02-26T11:00:02.705Z,52.20
2019-02-26T11:01:40.272Z,51.60
2019-02-26T11:03:17.430Z,52.10
2019-02-26T11:04:55.523Z,51.20
2019-02-26T11:06:33.704Z,52.10
2019-02-26T11:08:09.664Z,51.90
2019-02-26T11:09:49.418Z,52.10
2019-02-26T11:11:23.630Z,52.10
2019-02-26T11:12:59.859Z,51.90
2019-02-26T11:14:37.242Z,52.40
2019-02-26T11:16:17.053Z,52.10
2019-02-26T11:17:53.615Z,51.00
2019-02-26T11:19:33.853Z,50.70
2019-02-26T11:21:07.438Z,51.50
2019-02-26T11:22:44.871Z,51.40
2019-02-26T11:24:23.479Z,51.70
2019-02-26T11:25:59.378Z,51.50
2019-02-26T11:27:37.770Z,51.00
2019-02-26T11:29:13.358Z,50.70
2019-02-26T11:30:51.561Z,50.60
2019-02-26T11:32:28.322Z,50.70
2019-02-26T11:34:07.297Z,51.10
2019-02-26T11:35:44.393Z,51.90
2019-02-26T11:37:24.772Z,51.80
2019-02-26T11:39:03.789Z,51.80
2019-02-26T11:40:38.461Z,52.40
2019-02-26T11:42:16.452Z,51.50
2019-02-26T11:43:52.399Z,51.30
2019-02-26T11:45:28.678Z,50.80
2019-02-26T11:47:04.889Z,50.90
2019-02-26T11:48:40.878Z,50.60
2019-02-26T11:50:27.114Z,49.40
2019-02-26T11:52:01.592Z,50.30
2019-02-26T11:53:37.771Z,50.80
2019-02-26T11:55:16.081Z,50.50
2019-02-26T11:56:52.610Z,50.50
2019-02-26T11:58:28.841Z,50.90
2019-02-26T12:00:24.350Z,50.80
2019-02-26T12:01:54.038Z,51.30
2019-02-26T12:03:33.148Z,50.70
2019-02-26T12:05:10.701Z,50.30
2019-02-26T12:06:46.146Z,49.60
2019-02-26T12:08:22.805Z,50.10
2019-02-26T12:10:09.295Z,49.60
2019-02-26T12:11:40.355Z,50.20
2019-02-26T12:13:17.202Z,49.60
2019-02-26T12:14:54.050Z,50.80
2019-02-26T12:16:30.099Z,50.20
2019-02-26T12:18:06.503Z,50.70
2019-02-26T12:19:43.869Z,50.70
2019-02-26T12:21:21.454Z,50.10
2019-02-26T12:22:57.514Z,50.00
2019-02-26T12:24:36.011Z,50.70
2019-02-26T12:26:11.458Z,50.30
2019-02-26T12:27:48.255Z,49.30
2019-02-26T12:29:26.004Z,50.00
2019-02-26T12:31:04.044Z,49.80
2019-02-26T12:32:41.678Z,49.70
2019-02-26T12:34:20.748Z,49.70
2019-02-26T12:35:59.002Z,49.70
2019-02-26T12:37:33.513Z,49.40
2019-02-26T12:39:09.619Z,49.60
2019-02-26T12:40:47.147Z,50.60
2019-02-26T12:42:23.614Z,50.10
2019-02-26T12:44:02.042Z,50.50
2019-02-26T12:45:38.754Z,50.30
2019-02-26T12:47:17.910Z,50.10
2019-02-26T12:48:52.888Z,49.80
2019-02-26T12:50:30.824Z,50.20
2019-02-26T12:52:06.682Z,50.30
2019-02-26T12:53:47.588Z,50.30
2019-02-26T12:55:28.969Z,50.80
2019-02-26T12:57:04.191Z,50.20
2019-02-26T12:58:41.117Z,49.60
2019-02-26T13:00:25.123Z,49.20
2019-02-26T13:02:04.701Z,49.70
2019-02-26T13:03:42.777Z,49.50
2019-02-26T13:05:23.003Z,48.90
2019-02-26T13:06:57.768Z,48.60
2019-02-26T13:08:35.621Z,48.60
2019-02-26T13:10:24.760Z,49.20
2019-02-26T13:12:02.765Z,49.10
2019-02-26T13:13:38.665Z,48.60
2019-02-26T13:15:19.309Z,48.30
2019-02-26T13:16:57.061Z,48.70
2019-02-26T13:18:33.267Z,48.70
2019-02-26T13:20:21.811Z,48.80
2019-02-26T13:22:05.072Z,48.10
2019-02-26T13:23:37.175Z,47.80
2019-02-26T13:25:17.680Z,48.00
2019-02-26T13:26:54.481Z,48.70
2019-02-26T13:28:30.515Z,48.60
2019-02-26T13:30:10.918Z,48.20
2019-02-26T13:31:55.674Z,48.30
2019-02-26T13:33:33.206Z,48.40
2019-02-26T13:35:07.423Z,47.30
2019-02-26T13:36:43.651Z,46.90
2019-02-26T13:38:24.460Z,47.50
2019-02-26T13:39:56.111Z,48.10
2019-02-26T13:41:38.692Z,48.00
2019-02-26T13:43:11.480Z,47.70
2019-02-26T13:44:47.506Z,48.20
2019-02-26T13:46:23.738Z,48.20
2019-02-26T13:48:01.388Z,48.20
2019-02-26T13:49:37.741Z,48.40
2019-02-26T13:51:13.776Z,49.20
2019-02-26T13:52:49.652Z,49.00
2019-02-26T13:54:25.769Z,49.70
2019-02-26T13:56:01.902Z,49.40
2019-02-26T13:57:37.943Z,50.20
2019-02-26T13:59:14.178Z,49.90
2019-02-26T14:00:50.411Z,49.90
2019-02-26T14:02:26.550Z,50.50
2019-02-26T14:04:02.765Z,50.30
2019-02-26T14:05:38.735Z,50.00
2019-02-26T14:07:14.787Z,50.70
2019-02-26T14:08:50.861Z,50.80
2019-02-26T14:10:27.463Z,51.00
2019-02-26T14:12:03.544Z,50.20
2019-02-26T14:13:41.228Z,50.00
2019-02-26T14:15:28.173Z,49.50
2019-02-26T14:17:04.290Z,49.50
2019-02-26T14:18:40.361Z,50.20
2019-02-26T14:20:16.563Z,50.50
2019-02-26T14:21:52.636Z,51.10
2019-02-26T14:23:34.736Z,50.80
2019-02-26T14:25:09.326Z,50.30
2019-02-26T14:26:45.991Z,50.30
2019-02-26T14:28:21.889Z,50.90
2019-02-26T14:29:58.032Z,52.00
2019-02-26T14:31:34.545Z,52.80
2019-02-26T14:33:10.502Z,53.40
2019-02-26T14:34:46.587Z,53.60
2019-02-26T14:36:22.657Z,53.60
2019-02-26T14:37:58.614Z,53.40
2019-02-26T14:39:34.583Z,53.80
2019-02-26T14:41:10.366Z,54.00
2019-02-26T14:42:46.460Z,54.00
2019-02-26T14:44:23.387Z,54.10
2019-02-26T14:45:59.436Z,54.40
2019-02-26T14:47:35.498Z,54.50
2019-02-26T14:49:11.572Z,54.70
2019-02-26T14:50:47.703Z,55.10
2019-02-26T14:52:23.899Z,54.60
2019-02-26T14:54:00.076Z,54.30
2019-02-26T14:55:36.201Z,54.00
2019-02-26T14:57:12.256Z,54.50
2019-02-26T14:58:48.964Z,54.70
2019-02-26T15:00:36.042Z,55.00
2019-02-26T15:02:12.165Z,55.40
2019-02-26T15:03:48.255Z,55.70
2019-02-26T15:05:24.455Z,56.60
2019-02-26T15:07:00.572Z,56.40
2019-02-26T15:08:36.637Z,56.90
2019-02-26T15:10:14.133Z,57.10
2019-02-26T15:11:50.166Z,57.20
2019-02-26T15:13:26.294Z,57.50
2019-02-26T15:15:02.356Z,57.50
2019-02-26T15:16:38.392Z,57.90
2019-02-26T15:18:14.517Z,57.90
2019-02-26T15:19:53.148Z,58.10
2019-02-26T15:21:28.086Z,58.00
2019-02-26T15:23:03.948Z,57.80
2019-02-26T15:24:39.993Z,58.30
2019-02-26T15:26:15.958Z,58.50
2019-02-26T15:27:52.057Z,59.10
2019-02-26T15:29:27.934Z,59.40
2019-02-26T15:31:04.126Z,59.30
2019-02-26T15:32:40.098Z,59.70
2019-02-26T15:34:16.214Z,59.90
2019-02-26T15:35:52.251Z,60.30
2019-02-26T15:37:28.481Z,60.20
2019-02-26T15:39:07.336Z,60.30
2019-02-26T15:40:43.496Z,60.70
2019-02-26T15:42:21.086Z,61.00
2019-02-26T15:43:57.409Z,61.20
2019-02-26T15:45:34.003Z,61.90
2019-02-26T15:47:10.247Z,61.70
2019-02-26T15:48:46.365Z,62.00
2019-02-26T15:50:22.953Z,62.10
2019-02-26T15:51:58.911Z,62.10
2019-02-26T15:53:35.044Z,62.30
2019-02-26T15:55:25.941Z,62.70
2019-02-26T15:57:01.631Z,62.80
2019-02-26T15:58:37.672Z,63.00
2019-02-26T16:00:18.558Z,63.20
2019-02-26T16:01:55.540Z,63.60
2019-02-26T16:03:31.972Z,63.80
2019-02-26T16:05:11.275Z,64.10
2019-02-26T16:06:47.322Z,64.20
2019-02-26T16:08:23.597Z,64.60
2019-02-26T16:09:59.645Z,64.80
2019-02-26T16:11:35.673Z,65.40
2019-02-26T16:13:11.728Z,65.60
2019-02-26T16:14:47.646Z,65.80
2019-02-26T16:16:23.526Z,66.10
2019-02-26T16:17:59.558Z,66.70
2019-02-26T16:19:37.865Z,67.00
2019-02-26T16:21:13.998Z,67.50
2019-02-26T16:22:50.130Z,67.60
2019-02-26T16:24:26.191Z,67.70
2019-02-26T16:26:01.991Z,68.00
2019-02-26T16:27:38.022Z,67.90
2019-02-26T16:29:14.439Z,68.20
2019-02-26T16:30:50.839Z,68.00
2019-02-26T16:32:26.799Z,68.20
2019-02-26T16:34:02.761Z,68.00
2019-02-26T16:35:38.859Z,68.30
2019-02-26T16:37:15.179Z,68.70
2019-02-26T16:38:51.701Z,68.60
2019-02-26T16:40:31.411Z,68.80
2019-02-26T16:42:05.895Z,68.90
2019-02-26T16:43:42.080Z,69.20
2019-02-26T16:45:25.905Z,69.20
2019-02-26T16:47:01.940Z,69.30
2019-02-26T16:48:37.993Z,69.70
2019-02-26T16:50:19.809Z,69.80
2019-02-26T16:51:55.762Z,69.80
2019-02-26T16:53:34.187Z,69.90
2019-02-26T16:55:14.133Z,70.50
2019-02-26T16:56:54.296Z,70.70
2019-02-26T16:58:28.407Z,70.80
2019-02-26T17:00:10.151Z,71.00
2019-02-26T17:01:46.347Z,71.00
2019-02-26T17:03:22.450Z,71.40
2019-02-26T17:04:58.546Z,71.40
2019-02-26T17:06:34.696Z,71.30
2019-02-26T17:08:12.552Z,71.40
2019-02-26T17:09:48.507Z,71.40
2019-02-26T17:11:24.667Z,71.40
2019-02-26T17:13:02.336Z,71.40
2019-02-26T17:14:38.664Z,71.40
2019-02-26T17:16:15.222Z,71.70
2019-02-26T17:17:51.428Z,72.00
2019-02-26T17:19:27.567Z,71.80
2019-02-26T17:21:03.628Z,71.90
2019-02-26T17:22:41.020Z,71.80
2019-02-26T17:24:18.447Z,71.80
2019-02-26T17:25:55.589Z,71.80
2019-02-26T17:27:31.547Z,72.20
2019-02-26T17:29:07.752Z,72.00
2019-02-26T17:30:43.854Z,72.10
2019-02-26T17:32:19.921Z,72.20
2019-02-26T17:33:55.897Z,72.50
2019-02-26T17:35:32.000Z,72.50
2019-02-26T17:37:09.346Z,72.50
2019-02-26T17:38:45.570Z,72.30
2019-02-26T17:40:27.109Z,72.20
2019-02-26T17:42:03.325Z,72.20
2019-02-26T17:43:39.351Z,72.10
2019-02-26T17:45:18.756Z,72.30
2019-02-26T17:46:54.693Z,72.20
2019-02-26T17:48:31.238Z,72.20
2019-02-26T17:50:24.208Z,73.40
2019-02-26T17:52:00.418Z,72.70
2019-02-26T17:53:36.480Z,72.60
2019-02-26T17:55:14.173Z,72.80
2019-02-26T17:56:50.463Z,72.80
2019-02-26T17:58:26.598Z,72.40
2019-02-26T18:00:02.666Z,72.50
2019-02-26T18:01:38.623Z,72.80
2019-02-26T18:03:14.554Z,73.10
2019-02-26T18:04:50.589Z,73.10
2019-02-26T18:06:26.691Z,73.10
2019-02-26T18:08:02.613Z,73.30
2019-02-26T18:09:38.642Z,73.50
2019-02-26T18:11:14.772Z,73.60
2019-02-26T18:12:50.886Z,73.50
2019-02-26T18:14:26.926Z,73.80
2019-02-26T18:16:09.150Z,74.00
2019-02-26T18:17:42.097Z,74.00
2019-02-26T18:19:20.152Z,74.50
2019-02-26T18:20:56.270Z,74.50
2019-02-26T18:22:32.651Z,74.70
2019-02-26T18:24:08.795Z,74.80
2019-02-26T18:25:44.964Z,75.00
2019-02-26T18:27:20.918Z,75.40
2019-02-26T18:28:57.055Z,75.40
2019-02-26T18:30:33.244Z,75.40
2019-02-26T18:32:11.232Z,75.60
2019-02-26T18:33:48.118Z,75.90
2019-02-26T18:35:24.326Z,75.80
2019-02-26T18:37:00.378Z,75.80
2019-02-26T18:38:36.342Z,75.80
2019-02-26T18:40:18.115Z,76.00
2019-02-26T18:41:54.086Z,76.10
2019-02-26T18:43:30.619Z,76.00
2019-02-26T18:45:16.246Z,76.00
2019-02-26T18:46:52.489Z,76.10
2019-02-26T18:48:28.546Z,76.30
2019-02-26T18:50:05.182Z,76.30
2019-02-26T18:51:41.275Z,76.40
2019-02-26T18:53:17.395Z,76.70
2019-02-26T18:54:54.232Z,76.80
2019-02-26T18:56:31.212Z,76.70
2019-02-26T18:58:07.352Z,76.90
2019-02-26T18:59:44.215Z,76.70
2019-02-26T19:01:20.446Z,76.80
2019-02-26T19:02:56.674Z,77.10
2019-02-26T19:04:32.802Z,77.40
2019-02-26T19:06:08.824Z,77.50
2019-02-26T19:07:44.805Z,77.50
2019-02-26T19:09:20.900Z,77.60
2019-02-26T19:10:56.928Z,77.80
2019-02-26T19:12:34.362Z,77.90
2019-02-26T19:14:10.437Z,78.00
2019-02-26T19:15:48.019Z,78.30
2019-02-26T19:17:26.602Z,78.40
2019-02-26T19:19:03.793Z,78.30
2019-02-26T19:20:40.788Z,78.60
2019-02-26T19:22:16.785Z,78.60
2019-02-26T19:23:52.893Z,78.60
2019-02-26T19:25:29.091Z,78.90
2019-02-26T19:27:05.672Z,78.90
2019-02-26T19:28:41.824Z,78.80
2019-02-26T19:30:23.195Z,79.80
2019-02-26T19:31:59.165Z,79.40
2019-02-26T19:33:35.161Z,79.70
2019-02-26T19:35:12.535Z,79.70
2019-02-26T19:36:48.828Z,80.10
2019-02-26T19:38:27.283Z,80.00
2019-02-26T19:40:05.697Z,79.80
2019-02-26T19:41:40.299Z,80.00
2019-02-26T19:43:16.331Z,80.20
2019-02-26T19:44:52.493Z,80.20
2019-02-26T19:46:28.620Z,81.00
2019-02-26T19:48:04.749Z,80.20
2019-02-26T19:49:40.845Z,80.30
2019-02-26T19:51:17.295Z,80.20
2019-02-26T19:52:57.084Z,80.40
2019-02-26T19:54:31.421Z,80.50
2019-02-26T19:56:07.645Z,80.60
2019-02-26T19:57:43.845Z,80.70
2019-02-26T19:59:19.921Z,80.90
2019-02-26T20:00:56.121Z,81.30
2019-02-26T20:02:32.287Z,81.30
2019-02-26T20:04:08.408Z,81.10
2019-02-26T20:05:46.682Z,81.30
2019-02-26T20:07:22.126Z,81.20
2019-02-26T20:08:58.186Z,81.60
2019-02-26T20:10:34.315Z,81.70
2019-02-26T20:12:10.511Z,81.70
2019-02-26T20:13:46.675Z,82.10
2019-02-26T20:15:22.870Z,82.00
2019-02-26T20:17:04.962Z,82.20
2019-02-26T20:18:36.617Z,82.60
2019-02-26T20:20:21.012Z,82.60
2019-02-26T20:21:56.912Z,82.70
2019-02-26T20:23:32.798Z,82.90
2019-02-26T20:25:15.342Z,83.00
2019-02-26T20:26:58.995Z,83.20
2019-02-26T20:28:35.502Z,83.40
2019-02-26T20:30:15.938Z,83.60
2019-02-26T20:31:55.393Z,83.70
2019-02-26T20:33:29.830Z,83.80
2019-02-26T20:35:11.605Z,83.80
2019-02-26T20:36:45.553Z,84.00
2019-02-26T20:38:21.684Z,84.00
2019-02-26T20:39:57.666Z,84.00
2019-02-26T20:41:33.798Z,84.30
2019-02-26T20:43:09.853Z,84.20
2019-02-26T20:44:45.904Z,84.30
2019-02-26T20:46:24.931Z,84.80
2019-02-26T20:48:03.895Z,84.70
2019-02-26T20:49:37.704Z,84.60
2019-02-26T20:51:13.759Z,85.00
2019-02-26T20:52:49.714Z,85.20
2019-02-26T20:54:25.497Z,85.30
2019-02-26T20:56:01.474Z,85.30